Time;durP1;ratioP1;P1;durP2;ratioP2;P2;SDS_P1;SDS_P2;PMS_P1;PMS_P2;Temp;Humidity;BMP_temperature;BMP_pressure;BME280_temperature;BME280_humidity;BME280_pressure;Samples;Min_cycle;Max_cycle;Signal;HPM_P1;HPM_P2
2021/10/23 00:00:59;;;;;;;6.75;3.45;;;;;;;;;;6245525;23;20429;-60
2021/10/23 00:03:24;;;;;;;7.88;3.72;;;;;;;;;;6246364;23;20000;-60
2021/10/23 00:05:50;;;;;;;7.65;3.67;;;;;;;;;;6246453;23;20011;-60
2021/10/23 00:08:15;;;;;;;8.75;3.60;;;;;;;;;;6244696;23;20083;-60
2021/10/23 00:10:41;;;;;;;7.50;3.92;;;;;;;;;;6246241;22;20023;-60
2021/10/23 00:13:07;;;;;;;7.18;3.35;;;;;;;;;;6246215;23;20098;-60
2021/10/23 00:15:33;;;;;;;9.13;4.05;;;;;;;;;;6246489;23;20006;-60
2021/10/23 00:17:58;;;;;;;10.63;4.13;;;;;;;;;;6246352;22;20038;-60
2021/10/23 00:20:24;;;;;;;9.15;3.95;;;;;;;;;;6246371;22;20068;-60
2021/10/23 00:22:49;;;;;;;6.10;3.35;;;;;;;;;;6246348;22;20300;-60
2021/10/23 00:25:15;;;;;;;7.63;4.00;;;;;;;;;;6246001;23;20317;-60
2021/10/23 00:27:47;;;;;;;5.75;3.35;;;;;;;;;;6246380;22;20416;-60
2021/10/23 00:30:13;;;;;;;6.85;3.35;;;;;;;;;;6248241;23;20007;-61
2021/10/23 00:32:39;;;;;;;3.78;2.35;;;;;;;;;;6248120;22;19996;-60
2021/10/23 00:35:05;;;;;;;3.92;2.38;;;;;;;;;;6247699;22;20054;-60
2021/10/23 00:37:31;;;;;;;4.25;2.00;;;;;;;;;;6247754;22;20094;-59
2021/10/23 00:39:57;;;;;;;1.83;1.60;;;;;;;;;;6247960;22;20032;-59
2021/10/23 00:42:23;;;;;;;3.05;1.85;;;;;;;;;;6248182;22;20428;-60
2021/10/23 00:44:49;;;;;;;3.08;1.92;;;;;;;;;;6247911;23;20035;-60
2021/10/23 00:47:17;;;;;;;3.05;1.70;;;;;;;;;;6247908;23;20324;-58
2021/10/23 00:49:52;;;;;;;2.45;1.58;;;;;;;;;;6247779;23;20004;-59
2021/10/23 00:52:21;;;;;;;1.95;1.50;;;;;;;;;;6246663;23;20008;-58
2021/10/23 00:54:53;;;;;;;3.22;1.20;;;;;;;;;;6247204;22;19999;-59
2021/10/23 00:57:19;;;;;;;1.40;1.30;;;;;;;;;;6248191;22;20079;-58
2021/10/23 00:59:45;;;;;;;2.22;1.20;;;;;;;;;;6247984;22;20031;-57
2021/10/23 01:02:10;;;;;;;3.00;1.25;;;;;;;;;;6247891;22;20012;-57
2021/10/23 01:04:36;;;;;;;2.70;1.58;;;;;;;;;;6247745;22;20004;-57
2021/10/23 01:07:02;;;;;;;0.73;0.73;;;;;;;;;;6247673;23;20451;-58
2021/10/23 01:09:27;;;;;;;2.05;1.15;;;;;;;;;;6247848;22;20447;-57
2021/10/23 01:11:54;;;;;;;1.40;0.98;;;;;;;;;;6247555;23;20004;-57
2021/10/23 01:14:24;;;;;;;0.90;0.90;;;;;;;;;;6247739;22;19992;-57
2021/10/23 01:16:51;;;;;;;0.98;0.73;;;;;;;;;;6246257;23;20437;-57
2021/10/23 01:19:17;;;;;;;1.08;0.70;;;;;;;;;;6247499;22;20421;-57
2021/10/23 01:21:44;;;;;;;1.90;0.70;;;;;;;;;;6247666;22;20004;-57
2021/10/23 01:24:10;;;;;;;0.95;0.88;;;;;;;;;;6247811;22;20003;-60
2021/10/23 01:26:37;;;;;;;0.75;0.70;;;;;;;;;;6247420;22;20043;-60
2021/10/23 01:29:03;;;;;;;0.95;0.80;;;;;;;;;;6247343;22;20079;-60
2021/10/23 01:31:29;;;;;;;0.85;0.85;;;;;;;;;;6247593;22;20004;-60
2021/10/23 01:33:55;;;;;;;1.25;0.80;;;;;;;;;;6247806;22;20086;-60
2021/10/23 01:36:22;;;;;;;1.65;0.70;;;;;;;;;;6246680;22;20008;-62
2021/10/23 01:38:49;;;;;;;1.00;0.90;;;;;;;;;;6245989;23;20008;-63
2021/10/23 01:41:21;;;;;;;1.33;0.80;;;;;;;;;;6245538;23;20448;-62
2021/10/23 01:43:54;;;;;;;1.88;0.98;;;;;;;;;;6246564;23;20399;-62
2021/10/23 01:46:21;;;;;;;1.35;0.60;;;;;;;;;;6245422;23;20019;-61
2021/10/23 01:48:46;;;;;;;0.80;0.80;;;;;;;;;;6247338;22;20352;-61
2021/10/23 01:51:12;;;;;;;0.80;0.80;;;;;;;;;;6247173;23;20054;-61
2021/10/23 01:53:37;;;;;;;1.33;0.70;;;;;;;;;;6245637;23;20058;-60
2021/10/23 01:56:03;;;;;;;0.63;0.63;;;;;;;;;;6247397;22;20000;-60
2021/10/23 01:58:29;;;;;;;1.55;0.60;;;;;;;;;;6220375;23;20325;-60
2021/10/23 02:00:55;;;;;;;0.57;0.57;;;;;;;;;;6245733;23;20012;-60
2021/10/23 02:03:20;;;;;;;0.40;0.40;;;;;;;;;;6247072;22;20467;-61
2021/10/23 02:05:45;;;;;;;0.52;0.40;;;;;;;;;;6247138;22;20045;-61
2021/10/23 02:08:11;;;;;;;0.30;0.30;;;;;;;;;;6246922;23;20413;-61
2021/10/23 02:10:37;;;;;;;0.50;0.50;;;;;;;;;;6247153;22;20000;-61
2021/10/23 02:13:03;;;;;;;0.68;0.40;;;;;;;;;;6247149;22;19996;-60
2021/10/23 02:15:28;;;;;;;0.73;0.40;;;;;;;;;;6247404;22;20010;-60
2021/10/23 02:17:54;;;;;;;1.63;0.45;;;;;;;;;;6247252;22;20004;-61
2021/10/23 02:20:19;;;;;;;0.68;0.43;;;;;;;;;;6247174;23;20023;-61
2021/10/23 02:22:45;;;;;;;0.63;0.45;;;;;;;;;;6247281;22;19999;-60
2021/10/23 02:25:11;;;;;;;0.32;0.30;;;;;;;;;;6246930;22;20007;-60
2021/10/23 02:27:36;;;;;;;0.45;0.45;;;;;;;;;;6246771;22;20357;-60
2021/10/23 02:30:05;;;;;;;0.93;0.38;;;;;;;;;;6247285;23;20039;-60
2021/10/23 02:32:30;;;;;;;0.63;0.45;;;;;;;;;;6247039;22;20297;-60
2021/10/23 02:34:57;;;;;;;0.43;0.40;;;;;;;;;;6247394;22;20024;-60
2021/10/23 02:37:23;;;;;;;0.40;0.40;;;;;;;;;;6246612;22;20012;-60
2021/10/23 02:39:49;;;;;;;0.50;0.50;;;;;;;;;;6246737;22;20035;-60
2021/10/23 02:42:15;;;;;;;2.35;0.50;;;;;;;;;;6246518;22;20428;-60
2021/10/23 02:44:42;;;;;;;0.40;0.40;;;;;;;;;;6246677;22;20008;-60
2021/10/23 02:47:07;;;;;;;0.30;0.30;;;;;;;;;;6246728;22;19996;-60
2021/10/23 02:49:33;;;;;;;0.35;0.35;;;;;;;;;;6246740;22;20004;-60
2021/10/23 02:51:59;;;;;;;0.73;0.40;;;;;;;;;;6244371;23;19996;-60
2021/10/23 02:54:24;;;;;;;1.67;0.50;;;;;;;;;;6246707;22;20325;-59
2021/10/23 02:56:50;;;;;;;0.38;0.38;;;;;;;;;;6246804;22;19992;-60
2021/10/23 02:59:15;;;;;;;1.40;0.50;;;;;;;;;;6244858;23;20097;-60
2021/10/23 03:01:41;;;;;;;1.10;0.47;;;;;;;;;;6246788;22;19996;-60
2021/10/23 03:04:07;;;;;;;0.30;0.30;;;;;;;;;;6246394;23;20004;-60
2021/10/23 03:06:32;;;;;;;0.40;0.40;;;;;;;;;;6246602;22;20049;-61
2021/10/23 03:08:58;;;;;;;0.55;0.47;;;;;;;;;;6246721;23;20014;-60
2021/10/23 03:11:23;;;;;;;0.45;0.40;;;;;;;;;;6245223;23;20007;-60
2021/10/23 03:13:49;;;;;;;1.88;0.50;;;;;;;;;;6246708;22;20000;-61
2021/10/23 03:16:14;;;;;;;1.20;0.50;;;;;;;;;;6246243;22;19996;-61
2021/10/23 03:18:40;;;;;;;1.50;0.90;;;;;;;;;;6245333;23;20016;-61
2021/10/23 03:21:05;;;;;;;1.20;0.60;;;;;;;;;;6246261;22;20003;-61
2021/10/23 03:23:31;;;;;;;0.80;0.77;;;;;;;;;;6246538;22;20008;-60
2021/10/23 03:25:56;;;;;;;0.50;0.50;;;;;;;;;;6246478;22;20075;-60
2021/10/23 03:28:22;;;;;;;1.27;0.60;;;;;;;;;;6246512;22;20000;-60
2021/10/23 03:30:48;;;;;;;0.88;0.65;;;;;;;;;;6246241;22;20003;-60
2021/10/23 03:33:14;;;;;;;2.35;0.73;;;;;;;;;;6246319;22;20004;-60
2021/10/23 03:35:39;;;;;;;0.80;0.70;;;;;;;;;;6246182;22;20003;-60
2021/10/23 03:38:06;;;;;;;1.90;0.80;;;;;;;;;;6244435;23;20022;-60
2021/10/23 03:40:31;;;;;;;0.60;0.60;;;;;;;;;;6246481;22;20409;-59
2021/10/23 03:42:57;;;;;;;1.58;0.77;;;;;;;;;;6246457;22;20012;-60
2021/10/23 03:45:22;;;;;;;1.83;0.70;;;;;;;;;;6246244;22;20000;-59
2021/10/23 03:47:48;;;;;;;1.38;0.63;;;;;;;;;;6246125;23;20400;-60
2021/10/23 03:50:13;;;;;;;1.90;0.95;;;;;;;;;;6246065;23;20019;-60
2021/10/23 03:52:39;;;;;;;2.33;0.80;;;;;;;;;;6246212;22;20083;-60
2021/10/23 03:55:04;;;;;;;1.08;0.90;;;;;;;;;;6245983;22;19996;-60
2021/10/23 03:57:30;;;;;;;1.00;0.90;;;;;;;;;;6246095;23;20004;-59
2021/10/23 03:59:56;;;;;;;1.58;0.90;;;;;;;;;;6244618;23;20000;-64
2021/10/23 04:02:22;;;;;;;0.95;0.88;;;;;;;;;;6245760;23;20087;-60
2021/10/23 04:04:48;;;;;;;1.10;1.00;;;;;;;;;;6246201;22;20028;-60
2021/10/23 04:07:13;;;;;;;3.08;0.90;;;;;;;;;;6246368;23;20383;-60
2021/10/23 04:09:39;;;;;;;1.15;1.05;;;;;;;;;;6246387;23;20298;-56
2021/10/23 04:12:04;;;;;;;0.93;0.82;;;;;;;;;;6246137;22;20008;-60
2021/10/23 04:14:30;;;;;;;1.63;0.75;;;;;;;;;;6246064;22;20004;-60
2021/10/23 04:16:56;;;;;;;1.35;0.93;;;;;;;;;;6246017;22;20083;-59
2021/10/23 04:19:21;;;;;;;3.15;0.80;;;;;;;;;;6246221;22;20074;-59
2021/10/23 04:21:47;;;;;;;1.38;0.95;;;;;;;;;;6246043;22;20008;-56
2021/10/23 04:24:13;;;;;;;2.35;1.00;;;;;;;;;;6244561;23;20363;-56
2021/10/23 04:26:39;;;;;;;1.95;1.30;;;;;;;;;;6246049;23;20004;-56
2021/10/23 04:29:04;;;;;;;1.45;0.90;;;;;;;;;;6246214;22;20054;-56
2021/10/23 04:31:30;;;;;;;1.83;1.30;;;;;;;;;;6245601;22;20011;-56
2021/10/23 04:34:01;;;;;;;3.78;1.15;;;;;;;;;;6245909;23;20000;-56
2021/10/23 04:36:27;;;;;;;1.92;0.93;;;;;;;;;;6245206;23;20008;-56
2021/10/23 04:38:53;;;;;;;1.48;1.00;;;;;;;;;;6246328;23;20040;-56
2021/10/23 04:41:19;;;;;;;1.73;0.90;;;;;;;;;;6246255;23;20004;-56
2021/10/23 04:43:44;;;;;;;2.45;0.90;;;;;;;;;;6246121;22;20004;-56
2021/10/23 04:46:10;;;;;;;2.90;1.10;;;;;;;;;;6246081;23;20031;-56
2021/10/23 04:48:36;;;;;;;1.75;0.93;;;;;;;;;;6246115;23;20308;-56
2021/10/23 04:51:02;;;;;;;1.65;1.10;;;;;;;;;;6246145;23;20024;-56
2021/10/23 04:53:28;;;;;;;1.38;0.98;;;;;;;;;;6246251;22;19996;-56
2021/10/23 04:55:54;;;;;;;1.10;1.00;;;;;;;;;;6245964;23;20441;-56
2021/10/23 04:58:19;;;;;;;2.42;0.88;;;;;;;;;;6244543;23;20007;-56
2021/10/23 05:00:45;;;;;;;2.58;1.10;;;;;;;;;;6245818;23;20012;-56
2021/10/23 05:03:11;;;;;;;3.38;1.05;;;;;;;;;;6245824;23;20028;-56
2021/10/23 05:05:36;;;;;;;3.80;1.10;;;;;;;;;;6245959;23;20004;-56
2021/10/23 05:08:02;;;;;;;1.50;1.13;;;;;;;;;;6245788;22;20046;-56
2021/10/23 05:10:28;;;;;;;2.58;0.85;;;;;;;;;;6245979;23;20007;-56
2021/10/23 05:12:53;;;;;;;2.30;1.27;;;;;;;;;;6245599;22;20342;-56
2021/10/23 05:15:19;;;;;;;2.25;1.23;;;;;;;;;;6246442;23;20010;-59
2021/10/23 05:17:44;;;;;;;1.52;1.25;;;;;;;;;;6247591;22;19996;-60
2021/10/23 05:20:10;;;;;;;1.77;1.20;;;;;;;;;;6247880;22;20012;-60
2021/10/23 05:22:36;;;;;;;3.72;1.20;;;;;;;;;;6247806;22;20457;-59
2021/10/23 05:25:02;;;;;;;2.53;1.42;;;;;;;;;;6247559;22;20455;-59
2021/10/23 05:27:27;;;;;;;1.75;0.80;;;;;;;;;;6247367;22;20417;-59
2021/10/23 05:29:53;;;;;;;4.60;1.10;;;;;;;;;;6247560;23;20087;-59
2021/10/23 05:32:18;;;;;;;4.05;1.35;;;;;;;;;;6247300;22;20003;-59
2021/10/23 05:34:45;;;;;;;2.92;1.20;;;;;;;;;;6247792;23;20091;-60
2021/10/23 05:37:11;;;;;;;3.97;1.15;;;;;;;;;;6247120;22;20016;-60
2021/10/23 05:39:37;;;;;;;2.05;1.33;;;;;;;;;;6247569;22;20309;-60
2021/10/23 05:42:02;;;;;;;1.80;1.25;;;;;;;;;;6247675;23;20463;-60
2021/10/23 05:44:28;;;;;;;2.90;1.38;;;;;;;;;;6245090;22;20005;-60
2021/10/23 05:46:54;;;;;;;2.15;1.27;;;;;;;;;;6236213;23;20004;-60
2021/10/23 05:49:21;;;;;;;3.45;1.10;;;;;;;;;;6241416;23;20019;-60
2021/10/23 05:51:46;;;;;;;2.45;1.25;;;;;;;;;;6241173;22;19996;-59
2021/10/23 05:54:12;;;;;;;3.72;1.30;;;;;;;;;;6241530;22;20011;-59
2021/10/23 05:56:38;;;;;;;2.10;0.93;;;;;;;;;;6241224;22;19996;-59
2021/10/23 05:59:14;;;;;;;3.97;1.17;;;;;;;;;;6241302;23;20070;-59
2021/10/23 06:01:40;;;;;;;1.92;1.27;;;;;;;;;;6241865;22;20091;-59
2021/10/23 06:04:06;;;;;;;1.73;1.20;;;;;;;;;;6240641;23;20042;-59
2021/10/23 06:06:33;;;;;;;2.85;1.30;;;;;;;;;;6242417;22;20019;-59
2021/10/23 06:09:00;;;;;;;2.65;1.25;;;;;;;;;;6242557;22;20058;-59
2021/10/23 06:11:25;;;;;;;1.77;0.93;;;;;;;;;;6242210;23;20008;-59
2021/10/23 06:13:52;;;;;;;1.20;0.82;;;;;;;;;;6239765;23;20011;-60
2021/10/23 06:16:18;;;;;;;2.67;1.40;;;;;;;;;;6242445;22;20087;-59
2021/10/23 06:18:43;;;;;;;3.20;1.30;;;;;;;;;;6242523;22;20442;-60
2021/10/23 06:21:09;;;;;;;2.88;1.50;;;;;;;;;;6242591;23;20067;-60
2021/10/23 06:23:34;;;;;;;2.13;1.13;;;;;;;;;;6242139;23;20005;-59
2021/10/23 06:26:01;;;;;;;3.88;1.27;;;;;;;;;;6241816;23;20107;-59
2021/10/23 06:28:27;;;;;;;1.58;1.10;;;;;;;;;;6242193;22;20000;-59
2021/10/23 06:30:52;;;;;;;3.13;1.20;;;;;;;;;;6242571;23;20409;-59
2021/10/23 06:33:18;;;;;;;3.55;1.20;;;;;;;;;;6242582;22;20368;-59
2021/10/23 06:35:44;;;;;;;5.43;1.60;;;;;;;;;;6241532;23;20008;-59
2021/10/23 06:38:09;;;;;;;2.42;1.13;;;;;;;;;;6242116;23;20636;-59
2021/10/23 06:40:35;;;;;;;4.65;1.73;;;;;;;;;;6241748;22;20004;-59
2021/10/23 06:43:00;;;;;;;3.75;1.50;;;;;;;;;;6241965;23;20004;-59
2021/10/23 06:45:26;;;;;;;3.55;1.42;;;;;;;;;;6241481;22;20418;-59
2021/10/23 06:47:52;;;;;;;1.60;1.20;;;;;;;;;;6241975;22;20018;-59
2021/10/23 06:50:18;;;;;;;4.60;1.73;;;;;;;;;;6242171;22;20000;-59
2021/10/23 06:52:44;;;;;;;2.03;1.38;;;;;;;;;;6241421;23;20004;-61
2021/10/23 06:55:10;;;;;;;2.05;1.58;;;;;;;;;;6241616;22;20003;-60
2021/10/23 06:57:36;;;;;;;3.42;1.45;;;;;;;;;;6242081;23;20004;-61
2021/10/23 07:00:01;;;;;;;4.55;1.63;;;;;;;;;;6241962;23;20748;-60
2021/10/23 07:02:27;;;;;;;4.10;1.50;;;;;;;;;;6242050;23;20325;-61
2021/10/23 07:04:53;;;;;;;4.35;1.65;;;;;;;;;;6242127;23;20479;-61
2021/10/23 07:07:18;;;;;;;1.80;1.42;;;;;;;;;;6242359;22;20391;-61
2021/10/23 07:09:44;;;;;;;2.60;1.70;;;;;;;;;;6241922;22;20000;-61
2021/10/23 07:12:10;;;;;;;2.45;1.08;;;;;;;;;;6241993;23;20058;-61
2021/10/23 07:14:36;;;;;;;2.90;1.70;;;;;;;;;;6241695;23;20046;-61
2021/10/23 07:17:01;;;;;;;3.40;1.10;;;;;;;;;;6241800;23;20413;-61
2021/10/23 07:19:27;;;;;;;2.88;1.70;;;;;;;;;;6241536;23;20412;-61
2021/10/23 07:21:52;;;;;;;2.97;1.20;;;;;;;;;;6241863;22;20015;-61
2021/10/23 07:24:19;;;;;;;3.95;1.65;;;;;;;;;;6241961;23;20004;-60
2021/10/23 07:26:46;;;;;;;2.63;1.08;;;;;;;;;;6241206;22;20070;-61
2021/10/23 07:29:13;;;;;;;2.65;1.45;;;;;;;;;;6239622;23;20472;-61
2021/10/23 07:31:39;;;;;;;3.45;1.20;;;;;;;;;;6241554;23;20008;-61
2021/10/23 07:34:04;;;;;;;2.63;1.33;;;;;;;;;;6241756;22;20047;-61
2021/10/23 07:36:30;;;;;;;3.63;1.05;;;;;;;;;;6240687;23;20016;-61
2021/10/23 07:38:55;;;;;;;1.73;1.33;;;;;;;;;;6241038;22;20036;-60
2021/10/23 07:41:21;;;;;;;1.48;1.30;;;;;;;;;;6241757;23;20090;-61
2021/10/23 07:43:47;;;;;;;3.33;1.35;;;;;;;;;;6240941;22;20016;-61
2021/10/23 07:46:12;;;;;;;3.85;1.35;;;;;;;;;;6241552;22;20011;-61
2021/10/23 07:48:38;;;;;;;3.83;1.85;;;;;;;;;;6241511;22;20138;-61
2021/10/23 07:51:06;;;;;;;1.95;1.13;;;;;;;;;;6241119;22;20166;-61
2021/10/23 07:53:32;;;;;;;3.22;1.33;;;;;;;;;;6241630;23;20001;-61
2021/10/23 07:55:58;;;;;;;2.40;1.17;;;;;;;;;;6239397;23;20415;-60
2021/10/23 07:58:25;;;;;;;3.20;1.30;;;;;;;;;;6241885;22;20008;-60
2021/10/23 08:00:50;;;;;;;3.22;1.55;;;;;;;;;;6241631;22;20000;-60
2021/10/23 08:03:16;;;;;;;2.30;1.10;;;;;;;;;;6241271;23;20064;-61
2021/10/23 08:05:41;;;;;;;1.75;1.08;;;;;;;;;;6241572;23;20027;-61
2021/10/23 08:08:07;;;;;;;3.45;1.38;;;;;;;;;;6241602;23;20038;-61
2021/10/23 08:10:33;;;;;;;3.72;0.85;;;;;;;;;;6241696;23;20428;-61
2021/10/23 08:13:00;;;;;;;2.00;1.48;;;;;;;;;;6241736;23;20000;-61
2021/10/23 08:15:26;;;;;;;2.20;1.40;;;;;;;;;;6240674;22;20079;-61
2021/10/23 08:17:52;;;;;;;1.98;1.10;;;;;;;;;;6241593;23;20062;-60
2021/10/23 08:20:18;;;;;;;3.55;1.02;;;;;;;;;;6241702;22;20071;-60
2021/10/23 08:22:43;;;;;;;5.38;1.50;;;;;;;;;;6241002;22;20018;-60
2021/10/23 08:25:10;;;;;;;4.10;1.67;;;;;;;;;;6240784;22;20057;-61
2021/10/23 08:27:40;;;;;;;5.35;1.58;;;;;;;;;;6241417;23;20012;-60
2021/10/23 08:30:06;;;;;;;2.45;1.13;;;;;;;;;;6241191;23;20012;-61
2021/10/23 08:32:32;;;;;;;1.73;1.15;;;;;;;;;;6241429;22;19997;-61
2021/10/23 08:34:58;;;;;;;2.90;1.20;;;;;;;;;;6240315;23;20019;-60
2021/10/23 08:37:24;;;;;;;3.22;1.38;;;;;;;;;;6243600;22;20027;-61
2021/10/23 08:39:50;;;;;;;3.65;1.10;;;;;;;;;;6244305;23;20039;-57
2021/10/23 08:42:17;;;;;;;1.75;0.80;;;;;;;;;;6242677;22;20019;-57
2021/10/23 08:44:43;;;;;;;3.63;1.40;;;;;;;;;;6241886;23;20008;-57
2021/10/23 08:47:08;;;;;;;1.25;0.90;;;;;;;;;;6241733;22;20000;-57
2021/10/23 08:49:35;;;;;;;4.32;1.83;;;;;;;;;;6242534;23;20058;-57
2021/10/23 08:52:00;;;;;;;2.75;0.98;;;;;;;;;;6243523;22;20000;-57
2021/10/23 08:54:27;;;;;;;1.70;0.95;;;;;;;;;;6243279;23;20708;-57
2021/10/23 08:56:52;;;;;;;3.85;0.98;;;;;;;;;;6241892;23;20003;-57
2021/10/23 08:59:18;;;;;;;2.90;1.30;;;;;;;;;;6243228;23;20015;-57
2021/10/23 09:01:44;;;;;;;2.65;0.80;;;;;;;;;;6243301;22;20050;-57
2021/10/23 09:04:10;;;;;;;2.60;1.23;;;;;;;;;;6243009;23;20012;-57
2021/10/23 09:06:37;;;;;;;2.85;1.08;;;;;;;;;;6243217;22;20003;-57
2021/10/23 09:09:07;;;;;;;1.80;1.15;;;;;;;;;;6243202;22;20058;-57
2021/10/23 09:11:37;;;;;;;2.03;1.00;;;;;;;;;;6242880;22;20023;-57
2021/10/23 09:14:21;;;;;;;1.20;1.02;;;;;;;;;;6243166;23;20036;-57
2021/10/23 09:16:56;;;;;;;0.85;0.80;;;;;;;;;;6241856;23;20369;-57
2021/10/23 09:19:30;;;;;;;4.32;1.10;;;;;;;;;;6242888;23;20012;-57
2021/10/23 09:21:55;;;;;;;0.98;0.88;;;;;;;;;;6243129;23;20055;-57
2021/10/23 09:24:22;;;;;;;3.10;1.30;;;;;;;;;;6242893;22;20000;-57
2021/10/23 09:26:50;;;;;;;1.63;0.65;;;;;;;;;;6240936;23;20019;-60
2021/10/23 09:29:20;;;;;;;1.42;1.15;;;;;;;;;;6242916;22;20004;-60
2021/10/23 09:31:49;;;;;;;2.85;1.63;;;;;;;;;;6242849;23;20004;-60
2021/10/23 09:34:15;;;;;;;7.63;1.20;;;;;;;;;;6242991;22;20103;-60
2021/10/23 09:36:51;;;;;;;4.82;1.40;;;;;;;;;;6242268;22;20050;-61
2021/10/23 09:39:23;;;;;;;2.35;1.40;;;;;;;;;;6242480;23;20067;-61
2021/10/23 09:42:08;;;;;;;3.05;0.82;;;;;;;;;;6242835;22;20607;-61
2021/10/23 09:44:37;;;;;;;0.90;0.85;;;;;;;;;;6242293;23;20071;-61
2021/10/23 09:47:03;;;;;;;4.03;1.20;;;;;;;;;;6242717;23;20008;-61
2021/10/23 09:49:28;;;;;;;5.05;1.70;;;;;;;;;;6242581;22;20007;-62
2021/10/23 09:52:13;;;;;;;4.05;1.67;;;;;;;;;;6242649;22;20004;-61
2021/10/23 09:54:39;;;;;;;4.53;1.60;;;;;;;;;;6242565;23;20032;-61
2021/10/23 09:57:09;;;;;;;2.42;1.33;;;;;;;;;;6242907;22;20000;-61
2021/10/23 09:59:38;;;;;;;2.42;1.10;;;;;;;;;;6242872;22;20008;-61
2021/10/23 10:02:03;;;;;;;2.22;0.73;;;;;;;;;;6242018;22;20000;-61
2021/10/23 10:04:29;;;;;;;4.65;1.63;;;;;;;;;;6241907;22;20008;-61
2021/10/23 10:06:55;;;;;;;4.68;2.17;;;;;;;;;;6242651;23;20341;-61
2021/10/23 10:09:25;;;;;;;6.90;2.67;;;;;;;;;;6242292;23;20035;-61
2021/10/23 10:11:51;;;;;;;6.22;1.70;;;;;;;;;;6241392;23;20010;-62
2021/10/23 10:14:19;;;;;;;3.13;0.93;;;;;;;;;;6240754;23;20360;-61
2021/10/23 10:16:46;;;;;;;3.42;1.13;;;;;;;;;;6242380;22;20082;-61
2021/10/23 10:19:13;;;;;;;4.93;1.42;;;;;;;;;;6242241;23;20015;-61
2021/10/23 10:21:39;;;;;;;5.30;2.17;;;;;;;;;;6242018;22;20043;-61
2021/10/23 10:24:25;;;;;;;4.65;1.38;;;;;;;;;;6240578;23;20020;-61
2021/10/23 10:27:07;;;;;;;3.25;1.33;;;;;;;;;;6241748;23;20012;-61
2021/10/23 10:29:50;;;;;;;7.63;1.55;;;;;;;;;;6241967;22;20684;-61
2021/10/23 10:32:30;;;;;;;4.80;1.90;;;;;;;;;;6242506;23;20026;-61
2021/10/23 10:38:22;;;;;;;5.13;2.00;;;;;;;;;;6241774;22;20012;-61
2021/10/23 10:43:15;;;;;;;8.90;1.60;;;;;;;;;;6241847;22;20038;-61
2021/10/23 10:45:46;;;;;;;3.95;1.65;;;;;;;;;;6241434;22;20018;-61
2021/10/23 10:48:12;;;;;;;1.88;1.08;;;;;;;;;;6242050;22;20008;-61
2021/10/23 10:50:40;;;;;;;2.95;1.33;;;;;;;;;;6241542;22;20000;-61
2021/10/23 10:53:21;;;;;;;3.55;1.63;;;;;;;;;;6241821;23;20012;-61
2021/10/23 10:55:48;;;;;;;5.28;1.15;;;;;;;;;;6239669;23;20008;-62
2021/10/23 10:58:14;;;;;;;2.85;1.05;;;;;;;;;;6241955;22;20000;-61
2021/10/23 11:00:46;;;;;;;4.75;1.30;;;;;;;;;;6241492;23;20033;-61
2021/10/23 11:03:31;;;;;;;1.45;0.57;;;;;;;;;;6241674;23;20004;-61
2021/10/23 11:05:57;;;;;;;2.97;1.30;;;;;;;;;;6241498;23;20028;-61
2021/10/23 11:08:24;;;;;;;3.40;1.27;;;;;;;;;;6241705;22;19999;-61
2021/10/23 11:10:53;;;;;;;2.35;1.40;;;;;;;;;;6241505;23;20054;-61
2021/10/23 11:13:25;;;;;;;4.18;1.20;;;;;;;;;;6238864;23;20004;-61
2021/10/23 11:15:51;;;;;;;4.15;1.63;;;;;;;;;;6238833;23;20026;-58
2021/10/23 11:18:17;;;;;;;2.22;0.82;;;;;;;;;;6241257;22;20007;-58
2021/10/23 11:20:45;;;;;;;3.72;1.23;;;;;;;;;;6241673;23;20008;-58
2021/10/23 11:23:21;;;;;;;3.45;1.60;;;;;;;;;;6241556;22;20027;-58
2021/10/23 11:25:47;;;;;;;3.20;1.20;;;;;;;;;;6241296;23;20004;-58
2021/10/23 11:28:13;;;;;;;3.20;1.13;;;;;;;;;;6241579;22;20443;-58
2021/10/23 11:30:44;;;;;;;5.07;1.27;;;;;;;;;;6241836;22;20008;-58
2021/10/23 11:33:12;;;;;;;2.15;1.25;;;;;;;;;;6240062;23;20046;-57
2021/10/23 11:35:46;;;;;;;2.92;0.95;;;;;;;;;;6241559;22;20333;-57
2021/10/23 11:38:24;;;;;;;2.13;1.17;;;;;;;;;;6241358;23;20023;-58
2021/10/23 11:40:59;;;;;;;1.98;1.25;;;;;;;;;;6241913;22;20034;-58
2021/10/23 11:43:26;;;;;;;3.40;1.67;;;;;;;;;;6241863;23;20004;-58
2021/10/23 11:45:52;;;;;;;3.47;1.50;;;;;;;;;;6241445;22;20309;-58
2021/10/23 11:48:18;;;;;;;3.38;1.40;;;;;;;;;;6241640;23;20035;-58
2021/10/23 11:50:45;;;;;;;5.75;1.42;;;;;;;;;;6241585;23;19996;-58
2021/10/23 11:53:13;;;;;;;4.60;1.65;;;;;;;;;;6240270;23;20004;-58
2021/10/23 11:55:42;;;;;;;4.78;1.63;;;;;;;;;;6240523;22;20008;-58
2021/10/23 11:58:10;;;;;;;2.10;1.67;;;;;;;;;;6240919;22;20011;-58
2021/10/23 12:00:37;;;;;;;3.13;1.45;;;;;;;;;;6241278;22;20030;-58
2021/10/23 12:03:05;;;;;;;3.90;1.60;;;;;;;;;;6241488;22;20374;-58
2021/10/23 12:05:36;;;;;;;1.17;0.80;;;;;;;;;;6240996;22;20012;-58
2021/10/23 12:08:08;;;;;;;4.05;1.45;;;;;;;;;;6241682;23;20507;-58
2021/10/23 12:10:34;;;;;;;4.10;1.75;;;;;;;;;;6241669;23;20008;-59
2021/10/23 12:13:12;;;;;;;3.85;1.90;;;;;;;;;;6241816;22;19996;-58
2021/10/23 12:15:38;;;;;;;5.25;1.90;;;;;;;;;;6241367;22;20436;-58
2021/10/23 12:18:07;;;;;;;4.75;1.90;;;;;;;;;;6241884;22;20075;-58
2021/10/23 12:20:35;;;;;;;2.97;1.40;;;;;;;;;;6241921;22;20488;-59
2021/10/23 12:23:02;;;;;;;1.92;1.25;;;;;;;;;;6240167;23;20420;-58
2021/10/23 12:25:28;;;;;;;5.85;1.65;;;;;;;;;;6243564;22;20372;-58
2021/10/23 12:27:59;;;;;;;2.75;1.40;;;;;;;;;;6243637;22;20306;-59
2021/10/23 12:30:25;;;;;;;1.90;0.68;;;;;;;;;;6243463;22;20043;-60
2021/10/23 12:32:50;;;;;;;2.75;1.33;;;;;;;;;;6243764;22;20007;-60
2021/10/23 12:35:26;;;;;;;4.55;1.70;;;;;;;;;;6243105;22;20344;-66
2021/10/23 12:37:54;;;;;;;2.15;0.90;;;;;;;;;;6242945;22;20016;-61
2021/10/23 12:40:27;;;;;;;2.30;1.13;;;;;;;;;;6241486;23;20416;-60
2021/10/23 12:42:55;;;;;;;4.43;1.45;;;;;;;;;;6243519;22;20007;-61
2021/10/23 12:45:22;;;;;;;1.67;0.80;;;;;;;;;;6242941;22;20070;-60
2021/10/23 12:47:49;;;;;;;2.85;1.77;;;;;;;;;;6243391;23;20018;-59
2021/10/23 12:50:19;;;;;;;1.75;1.23;;;;;;;;;;6240726;23;20012;-59
2021/10/23 12:52:45;;;;;;;1.87;1.13;;;;;;;;;;6242793;22;20018;-59
2021/10/23 12:55:11;;;;;;;3.55;1.65;;;;;;;;;;6242593;22;20079;-59
2021/10/23 12:57:36;;;;;;;5.88;1.90;;;;;;;;;;6239581;23;20039;-59
2021/10/23 13:00:02;;;;;;;4.35;2.10;;;;;;;;;;6236133;23;20008;-58
2021/10/23 13:02:28;;;;;;;4.55;1.90;;;;;;;;;;6232710;23;20637;-58
2021/10/23 13:04:54;;;;;;;6.15;2.50;;;;;;;;;;6241612;22;20079;-59
2021/10/23 13:07:19;;;;;;;5.15;2.85;;;;;;;;;;6246627;22;20099;-59
2021/10/23 13:09:45;;;;;;;3.15;2.20;;;;;;;;;;6242348;22;20008;-58
2021/10/23 13:12:10;;;;;;;1.40;1.20;;;;;;;;;;6240562;23;20004;-59
2021/10/23 13:14:36;;;;;;;2.15;1.08;;;;;;;;;;6243422;22;20016;-59
2021/10/23 13:17:03;;;;;;;1.52;1.00;;;;;;;;;;6237313;23;20078;-58
2021/10/23 13:19:28;;;;;;;1.83;1.10;;;;;;;;;;6238990;22;20756;-59
2021/10/23 13:21:54;;;;;;;2.20;1.20;;;;;;;;;;6224980;22;20095;-59
2021/10/23 13:24:19;;;;;;;2.35;1.55;;;;;;;;;;6236993;22;20011;-59
2021/10/23 13:26:45;;;;;;;1.58;1.40;;;;;;;;;;6239065;22;20012;-58
2021/10/23 13:29:10;;;;;;;3.45;1.77;;;;;;;;;;6244823;23;19996;-59
2021/10/23 13:31:39;;;;;;;2.47;1.23;;;;;;;;;;6247155;22;20464;-59
2021/10/23 13:34:04;;;;;;;2.92;1.38;;;;;;;;;;6247168;22;20018;-59
2021/10/23 13:36:30;;;;;;;4.38;1.75;;;;;;;;;;6246171;22;20075;-59
2021/10/23 13:38:56;;;;;;;4.28;1.90;;;;;;;;;;6247079;23;20010;-59
2021/10/23 13:41:22;;;;;;;2.88;1.77;;;;;;;;;;6247052;22;20397;-59
2021/10/23 13:43:47;;;;;;;3.03;1.67;;;;;;;;;;6246525;23;20019;-59
2021/10/23 13:46:13;;;;;;;3.25;1.83;;;;;;;;;;6247416;22;20010;-59
2021/10/23 13:48:38;;;;;;;3.97;2.45;;;;;;;;;;6246419;23;20043;-59
2021/10/23 13:51:04;;;;;;;4.07;2.45;;;;;;;;;;6245887;22;19999;-59
2021/10/23 13:53:29;;;;;;;3.22;1.98;;;;;;;;;;6246461;23;20015;-59
2021/10/23 13:55:55;;;;;;;3.45;2.15;;;;;;;;;;6247075;22;20000;-59
2021/10/23 13:58:20;;;;;;;3.40;2.00;;;;;;;;;;6246777;22;20008;-59
2021/10/23 14:00:46;;;;;;;4.72;2.08;;;;;;;;;;6246965;22;20000;-59
2021/10/23 14:03:13;;;;;;;6.32;2.00;;;;;;;;;;6245388;23;20003;-59
2021/10/23 14:05:39;;;;;;;4.15;2.35;;;;;;;;;;6247054;22;19999;-61
2021/10/23 14:08:04;;;;;;;10.93;2.15;;;;;;;;;;6246901;23;20011;-59
2021/10/23 14:10:30;;;;;;;3.45;2.03;;;;;;;;;;6246813;22;20003;-59
2021/10/23 14:12:56;;;;;;;4.18;2.17;;;;;;;;;;6246732;23;20432;-59
2021/10/23 14:15:22;;;;;;;4.30;2.03;;;;;;;;;;6246100;23;19996;-59
2021/10/23 14:17:48;;;;;;;8.55;1.55;;;;;;;;;;6246554;23;20004;-59
2021/10/23 14:20:13;;;;;;;5.30;1.92;;;;;;;;;;6246755;22;20079;-59
2021/10/23 14:22:41;;;;;;;3.97;1.70;;;;;;;;;;6247028;23;20004;-59
2021/10/23 14:25:09;;;;;;;6.43;2.13;;;;;;;;;;6246679;22;20002;-59
2021/10/23 14:27:56;;;;;;;5.20;2.08;;;;;;;;;;6246448;23;20083;-59
2021/10/23 14:30:21;;;;;;;5.75;2.30;;;;;;;;;;6246823;23;20004;-59
2021/10/23 14:32:47;;;;;;;2.85;2.30;;;;;;;;;;6246476;22;20015;-59
2021/10/23 14:35:14;;;;;;;2.83;2.10;;;;;;;;;;6246351;23;20000;-58
2021/10/23 14:37:40;;;;;;;6.78;2.55;;;;;;;;;;6245857;22;20016;-59
2021/10/23 14:40:07;;;;;;;4.20;2.00;;;;;;;;;;6246980;22;20384;-59
2021/10/23 14:42:33;;;;;;;2.40;1.42;;;;;;;;;;6246571;22;20035;-59
2021/10/23 14:44:58;;;;;;;4.80;2.25;;;;;;;;;;6246472;23;20051;-59
2021/10/23 14:47:24;;;;;;;6.50;3.10;;;;;;;;;;6246308;22;20004;-59